Time;durP1;ratioP1;P1;durP2;ratioP2;P2;SDS_P1;SDS_P2;PMS_P1;PMS_P2;Temp;Humidity;BMP_temperature;BMP_pressure;BME280_temperature;BME280_humidity;BME280_pressure;Samples;Min_cycle;Max_cycle;Signal;HPM_P1;HPM_P2
2022/02/01 00:01:48;;;;;;;13.77;3.50;;;5.90;99.90;;;;;;5065228;28;20468;-83
2022/02/01 00:04:35;;;;;;;15.23;3.10;;;5.80;99.90;;;;;;5070981;28;20542;-81
2022/02/01 00:07:45;;;;;;;9.73;3.00;;;5.70;99.90;;;;;;5056644;28;20487;-84
2022/02/01 00:13:47;;;;;;;10.00;3.20;;;5.80;99.90;;;;;;5075713;28;20514;-84
2022/02/01 00:20:25;;;;;;;12.33;2.60;;;5.70;99.90;;;;;;5076805;28;20466;-84
2022/02/01 00:38:58;;;;;;;10.50;2.50;;;5.50;99.90;;;;;;4985010;28;20464;-83
2022/02/01 00:41:34;;;;;;;12.83;2.60;;;5.50;99.90;;;;;;5057651;28;20462;-85
2022/02/01 00:44:09;;;;;;;14.87;2.87;;;5.50;99.90;;;;;;5073162;28;20550;-83
2022/02/01 00:46:56;;;;;;;10.23;2.90;;;5.50;99.90;;;;;;5066185;28;20481;-89
2022/02/01 00:49:34;;;;;;;11.47;2.50;;;5.40;99.90;;;;;;5064596;28;20498;-82
2022/02/01 00:53:07;;;;;;;12.73;3.47;;;5.50;99.90;;;;;;5060648;28;20507;-83
2022/02/01 00:56:05;;;;;;;8.43;2.30;;;5.40;99.90;;;;;;5058970;28;20813;-85
2022/02/01 00:59:09;;;;;;;9.87;2.80;;;5.40;99.90;;;;;;5059614;28;20476;-85
2022/02/01 01:01:53;;;;;;;12.17;3.23;;;5.40;99.90;;;;;;5057122;28;20486;-80
2022/02/01 01:04:37;;;;;;;8.67;2.60;;;5.40;99.90;;;;;;5059091;28;20455;-84
2022/02/01 01:07:18;;;;;;;14.00;2.40;;;5.30;99.90;;;;;;5066332;28;20515;-86
2022/02/01 01:10:47;;;;;;;8.43;2.47;;;5.30;99.90;;;;;;5087613;28;20850;-84
2022/02/01 01:16:38;;;;;;;10.43;1.80;;;5.30;99.90;;;;;;5085696;28;20432;-85
2022/02/01 01:45:05;;;;;;;;;;;;;;;;;;;;;
2022/02/01 01:54:13;;;;;;;10.33;2.80;;;5.20;99.90;;;;;;5074844;28;20490;-85
2022/02/01 01:56:57;;;;;;;12.17;1.97;;;5.50;99.90;;;;;;5054194;28;20449;-83
2022/02/01 01:59:54;;;;;;;13.60;3.20;;;5.60;99.90;;;;;;5072541;28;20534;-82
2022/02/01 02:02:29;;;;;;;10.77;2.20;;;5.40;99.90;;;;;;5056819;28;20842;-85
2022/02/01 02:05:25;;;;;;;7.63;1.90;;;5.80;99.90;;;;;;5061025;28;21312;-84
2022/02/01 02:07:59;;;;;;;10.20;3.00;;;5.50;99.90;;;;;;5064256;28;20543;-87
2022/02/01 02:17:11;;;;;;;6.60;1.80;;;5.50;99.90;;;;;;5076379;28;20450;-82
2022/02/01 02:20:06;;;;;;;;;;;;;;;;;;;;;
2022/02/01 02:22:45;;;;;;;13.97;2.57;;;5.50;99.90;;;;;;5079499;28;20534;-84
2022/02/01 02:25:41;;;;;;;14.30;2.80;;;5.50;99.90;;;;;;5062147;28;20464;-83
2022/02/01 02:28:25;;;;;;;10.60;2.20;;;5.50;99.90;;;;;;5064751;28;20983;-84
2022/02/01 02:31:02;;;;;;;4.73;2.20;;;5.80;99.90;;;;;;5061038;28;20491;-83
2022/02/01 02:33:46;;;;;;;9.00;2.20;;;5.50;99.90;;;;;;5063204;28;20468;-84
2022/02/01 02:36:36;;;;;;;14.57;2.63;;;5.90;99.90;;;;;;5067289;28;20466;-82
2022/02/01 02:45:13;;;;;;;7.57;2.37;;;5.50;99.90;;;;;;5076582;28;20543;-82
2022/02/01 02:48:01;;;;;;;9.37;2.07;;;5.50;99.90;;;;;;5056936;28;21364;-84
2022/02/01 02:50:44;;;;;;;6.73;2.10;;;5.50;99.90;;;;;;5051504;28;20480;-81
2022/02/01 02:53:24;;;;;;;11.67;2.63;;;5.30;99.90;;;;;;5065007;28;20455;-82
2022/02/01 02:55:57;;;;;;;4.70;1.80;;;5.70;99.90;;;;;;5072056;28;20476;-82
2022/02/01 02:58:49;;;;;;;9.17;3.90;;;5.50;99.90;;;;;;5063951;28;20533;-82
2022/02/01 03:01:36;;;;;;;7.60;2.40;;;5.20;99.90;;;;;;5071862;28;20467;-84
2022/02/01 03:04:10;;;;;;;9.13;2.17;;;5.50;99.90;;;;;;5062860;28;20924;-81
2022/02/01 03:06:48;;;;;;;11.13;2.63;;;5.50;99.90;;;;;;5065548;28;20462;-81
2022/02/01 03:09:32;;;;;;;4.20;1.80;;;5.50;99.90;;;;;;5056499;28;20982;-83
2022/02/01 03:13:05;;;;;;;13.90;3.30;;;5.40;99.90;;;;;;5062306;28;21010;-89
2022/02/01 03:15:47;;;;;;;13.87;3.13;;;5.40;99.90;;;;;;5076295;28;20491;-87
2022/02/01 03:21:21;;;;;;;8.30;2.03;;;5.40;99.90;;;;;;5078630;28;20853;-83
2022/02/01 03:24:11;;;;;;;5.77;2.60;;;5.40;99.90;;;;;;5064591;28;20490;-83
2022/02/01 03:26:46;;;;;;;7.57;1.70;;;5.40;99.90;;;;;;5061424;28;20444;-86
2022/02/01 03:29:23;;;;;;;17.03;3.50;;;5.10;99.90;;;;;;5063952;28;20806;-82
2022/02/01 03:32:04;;;;;;;4.33;1.83;;;5.40;99.90;;;;;;5064437;28;20455;-82
2022/02/01 03:34:38;;;;;;;6.90;1.97;;;5.40;99.90;;;;;;5060709;28;20471;-82
2022/02/01 03:37:25;;;;;;;3.30;1.63;;;5.40;99.90;;;;;;5062075;28;20778;-82
2022/02/01 03:40:03;;;;;;;9.43;2.30;;;5.40;99.90;;;;;;5080562;28;20452;-81
2022/02/01 03:42:45;;;;;;;10.37;2.10;;;5.50;99.90;;;;;;5048254;22;21040;-85
2022/02/01 03:45:22;;;;;;;7.93;2.17;;;5.60;99.90;;;;;;5036265;28;20464;-85
2022/02/01 03:48:01;;;;;;;8.77;2.00;;;5.50;99.90;;;;;;5040194;28;20477;-82
2022/02/01 03:50:39;;;;;;;10.67;2.97;;;5.80;99.90;;;;;;5041435;28;20507;-84
2022/02/01 03:53:15;;;;;;;6.00;2.20;;;5.50;99.90;;;;;;5035085;28;20515;-83
2022/02/01 03:55:49;;;;;;;10.07;2.17;;;5.40;99.90;;;;;;5040193;28;20488;-84
2022/02/01 03:58:33;;;;;;;8.47;4.10;;;5.50;99.90;;;;;;5023318;28;20499;-83
2022/02/01 04:01:06;;;;;;;7.70;2.33;;;5.50;99.90;;;;;;5032644;28;20493;-82
2022/02/01 04:04:00;;;;;;;7.07;2.30;;;5.50;99.90;;;;;;5039828;28;20529;-80
2022/02/01 04:06:44;;;;;;;12.53;2.40;;;5.40;99.90;;;;;;5026283;28;20465;-83
2022/02/01 04:09:37;;;;;;;9.70;3.53;;;5.40;99.90;;;;;;5038021;28;20465;-87
2022/02/01 04:12:38;;;;;;;10.10;2.53;;;5.50;99.90;;;;;;5042294;28;20473;-87
2022/02/01 04:15:09;;;;;;;7.53;2.30;;;5.40;99.90;;;;;;5055954;28;20495;-89
2022/02/01 04:22:01;;;;;;;10.60;2.90;;;5.40;99.90;;;;;;5048211;28;21259;-86
2022/02/01 04:24:51;;;;;;;10.20;2.30;;;5.40;99.90;;;;;;5038082;28;20464;-83
2022/02/01 04:27:46;;;;;;;9.43;3.17;;;5.80;99.90;;;;;;5026216;28;20452;-84
2022/02/01 04:31:00;;;;;;;8.70;2.33;;;5.40;99.90;;;;;;5027047;28;20483;-84
2022/02/01 04:33:44;;;;;;;10.23;2.73;;;5.80;99.90;;;;;;5050691;28;20496;-83
2022/02/01 04:36:27;;;;;;;6.90;2.40;;;5.40;99.90;;;;;;5031609;28;20455;-82
2022/02/01 04:42:03;;;;;;;5.93;2.30;;;5.50;99.90;;;;;;5039716;28;20520;-82
2022/02/01 04:44:48;;;;;;;7.83;2.57;;;5.20;99.90;;;;;;5033490;28;20496;-82
2022/02/01 04:47:35;;;;;;;4.33;1.70;;;5.50;99.90;;;;;;5036242;28;20512;-84
2022/02/01 04:50:43;;;;;;;;;;;;;;;;;;;;;
2022/02/01 04:57:01;;;;;;;10.20;2.80;;;5.90;99.90;;;;;;5033502;28;20455;-82
2022/02/01 05:02:38;;;;;;;7.80;1.90;;;5.60;99.90;;;;;;5084581;22;20479;-84
2022/02/01 05:05:17;;;;;;;10.47;4.53;;;5.50;99.90;;;;;;5077603;28;20478;-82
2022/02/01 05:07:49;;;;;;;9.47;1.97;;;6.10;99.90;;;;;;5077138;28;20515;-82
2022/02/01 05:10:35;;;;;;;9.33;2.27;;;5.50;99.90;;;;;;5037492;28;20463;-85
2022/02/01 05:14:01;;;;;;;8.10;2.13;;;5.50;99.90;;;;;;5043194;28;20519;-81
2022/02/01 05:19:57;;;;;;;8.47;3.10;;;5.50;99.90;;;;;;5074713;28;20482;-84
2022/02/01 05:22:32;;;;;;;7.93;2.30;;;5.50;99.90;;;;;;5062439;28;20506;-84
2022/02/01 05:25:45;;;;;;;5.73;1.93;;;6.10;99.90;;;;;;5081103;28;20442;-84
2022/02/01 05:28:37;;;;;;;10.90;3.00;;;5.40;99.90;;;;;;5046699;28;20485;-86
2022/02/01 05:31:29;;;;;;;11.20;2.60;;;5.20;99.90;;;;;;5065864;28;21132;-85
2022/02/01 05:34:20;;;;;;;5.50;2.00;;;5.60;99.90;;;;;;5054065;28;20585;-83
2022/02/01 05:37:16;;;;;;;10.37;2.00;;;5.50;99.90;;;;;;5057134;28;21752;-82
2022/02/01 05:40:23;;;;;;;7.43;2.37;;;5.50;99.90;;;;;;5061031;28;20455;-82
2022/02/01 05:43:32;;;;;;;8.23;2.33;;;5.50;99.90;;;;;;5062104;28;20487;-80
2022/02/01 05:49:31;;;;;;;;;;;;;;;;;;;;;
2022/02/01 05:52:22;;;;;;;5.57;2.13;;;5.50;99.90;;;;;;5091241;28;20479;-84
2022/02/01 05:55:28;;;;;;;8.43;2.77;;;5.10;99.90;;;;;;5070625;28;20478;-82
2022/02/01 05:58:13;;;;;;;8.70;2.07;;;5.50;99.90;;;;;;5067421;28;20890;-84
2022/02/01 06:01:02;;;;;;;12.07;2.87;;;5.60;99.90;;;;;;5062238;28;20479;-82
2022/02/01 06:03:46;;;;;;;5.30;1.60;;;5.90;99.90;;;;;;5055712;28;20497;-85
2022/02/01 06:06:46;;;;;;;5.47;2.33;;;5.80;99.90;;;;;;5079467;28;20463;-82
2022/02/01 06:09:34;;;;;;;9.70;2.80;;;5.50;99.90;;;;;;5051053;28;20497;-82
2022/02/01 06:12:23;;;;;;;;;;;;;;;;;;;;;
2022/02/01 06:15:28;;;;;;;6.73;2.50;;;5.60;99.90;;;;;;5075053;28;20470;-84
2022/02/01 06:18:10;;;;;;;9.03;2.30;;;5.60;99.90;;;;;;5065660;28;20484;-82
2022/02/01 06:21:21;;;;;;;9.07;3.20;;;5.60;99.90;;;;;;5063307;28;20498;-85
2022/02/01 06:24:18;;;;;;;8.63;2.00;;;5.60;99.90;;;;;;5077282;28;20450;-85
2022/02/01 06:27:10;;;;;;;4.60;2.10;;;5.60;99.90;;;;;;5058836;28;20454;-83
2022/02/01 06:29:59;;;;;;;5.47;2.47;;;5.60;99.90;;;;;;5069318;28;20463;-79
2022/02/01 06:35:53;;;;;;;3.13;2.20;;;5.90;99.90;;;;;;5061199;28;20491;-81
2022/02/01 06:38:36;;;;;;;7.23;2.47;;;5.80;99.90;;;;;;5044502;28;20459;-83
2022/02/01 06:41:44;;;;;;;4.40;2.13;;;6.00;99.90;;;;;;5051788;28;20460;-84
2022/02/01 06:44:35;;;;;;;6.33;2.10;;;5.90;99.90;;;;;;5074137;28;20459;-85
2022/02/01 06:47:29;;;;;;;11.07;2.53;;;5.80;99.90;;;;;;5064896;28;20497;-83
2022/02/01 06:50:04;;;;;;;8.83;2.67;;;5.80;99.90;;;;;;5056478;28;20531;-81
2022/02/01 06:52:42;;;;;;;7.83;2.97;;;5.70;99.90;;;;;;5077333;28;20455;-82
2022/02/01 06:55:56;;;;;;;8.07;2.33;;;5.80;99.90;;;;;;5049813;28;20558;-84
2022/02/01 07:02:45;;;;;;;6.83;1.90;;;6.10;99.90;;;;;;5084697;28;20538;-85
2022/02/01 07:05:52;;;;;;;;;;;;;;;;;;;;;
2022/02/01 07:08:42;;;;;;;8.53;3.10;;;6.40;99.90;;;;;;5088094;28;20444;-82
2022/02/01 07:15:30;;;;;;;5.17;2.17;;;6.30;99.90;;;;;;5036136;28;20503;-85
2022/02/01 07:18:30;;;;;;;;;;;;;;;;;;;;;
2022/02/01 07:21:26;;;;;;;8.00;2.70;;;6.30;99.90;;;;;;5067672;28;20470;-81
2022/02/01 07:24:54;;;;;;;7.00;2.40;;;6.20;99.90;;;;;;5065511;28;20443;-82
2022/02/01 07:31:15;;;;;;;10.53;2.33;;;5.70;99.90;;;;;;5074622;28;20451;-84
2022/02/01 07:33:59;;;;;;;7.47;2.23;;;6.00;99.90;;;;;;5054249;28;20464;-84
2022/02/01 07:36:38;;;;;;;6.10;2.67;;;5.90;99.90;;;;;;5068611;28;20466;-84
2022/02/01 07:39:24;;;;;;;9.50;3.53;;;5.90;99.90;;;;;;5064043;28;20539;-83
2022/02/01 07:42:07;;;;;;;6.27;3.10;;;5.90;99.90;;;;;;5072055;28;20475;-85
2022/02/01 07:44:42;;;;;;;6.40;3.40;;;5.90;99.90;;;;;;5067270;28;20465;-83
2022/02/01 07:51:23;;;;;;;8.57;3.70;;;6.30;99.90;;;;;;5072965;28;20847;-86
2022/02/01 07:53:59;;;;;;;9.07;4.10;;;6.20;99.90;;;;;;5082720;28;20539;-85
2022/02/01 07:57:00;;;;;;;8.70;3.73;;;6.20;99.90;;;;;;5059337;28;20446;-82
2022/02/01 07:59:54;;;;;;;12.57;3.90;;;6.00;99.90;;;;;;5064044;28;20438;-82
2022/02/01 08:02:49;;;;;;;10.77;4.70;;;5.90;99.90;;;;;;5073143;28;20494;-84
2022/02/01 08:05:30;;;;;;;7.10;3.70;;;5.90;99.90;;;;;;5066420;28;20817;-84
2022/02/01 08:08:07;;;;;;;7.27;3.57;;;6.30;99.90;;;;;;5072277;28;20554;-81
2022/02/01 08:11:15;;;;;;;8.73;5.80;;;6.10;99.90;;;;;;5062946;28;20462;-80
2022/02/01 08:17:24;;;;;;;10.87;6.13;;;5.90;99.90;;;;;;5073095;28;20431;-79
2022/02/01 08:23:08;;;;;;;10.03;4.77;;;5.90;99.90;;;;;;5189507;23;20469;-79
2022/02/01 08:25:59;;;;;;;10.37;4.60;;;6.10;99.90;;;;;;4998730;28;20503;-79
2022/02/01 08:28:49;;;;;;;7.50;4.50;;;6.60;99.90;;;;;;4998215;28;20446;-79
2022/02/01 08:31:51;;;;;;;10.50;4.47;;;6.00;99.90;;;;;;5011853;28;20467;-86
2022/02/01 08:34:41;;;;;;;11.03;4.70;;;6.30;99.90;;;;;;4997952;28;20495;-81
2022/02/01 08:37:26;;;;;;;11.97;5.20;;;6.20;99.90;;;;;;5010844;28;20485;-87
2022/02/01 08:44:45;;;;;;;7.13;4.90;;;6.20;99.90;;;;;;4952428;29;20436;-87
2022/02/01 08:47:27;;;;;;;10.07;4.30;;;6.40;99.90;;;;;;4952695;29;20438;-84
2022/02/01 08:50:36;;;;;;;12.77;7.20;;;6.10;99.90;;;;;;4866229;29;20453;-82
2022/02/01 08:53:43;;;;;;;13.10;5.00;;;6.20;99.90;;;;;;4997370;28;20478;-83
2022/02/01 08:59:19;;;;;;;6.83;4.73;;;6.50;99.90;;;;;;4984518;28;20444;-86
2022/02/01 09:02:02;;;;;;;8.20;4.40;;;6.50;99.90;;;;;;4979508;28;20482;-84
2022/02/01 09:04:52;;;;;;;11.63;5.50;;;6.10;99.90;;;;;;4954426;28;20440;-82
2022/02/01 09:07:41;;;;;;;8.80;4.93;;;6.10;99.90;;;;;;4992165;28;20478;-81
2022/02/01 09:10:54;;;;;;;8.43;5.30;;;6.10;99.90;;;;;;4971090;28;20460;-80
2022/02/01 09:13:59;;;;;;;9.53;4.97;;;6.20;99.90;;;;;;4981877;28;20463;-80
2022/02/01 09:16:59;;;;;;;6.53;4.20;;;6.30;99.90;;;;;;4974041;28;20550;-83
2022/02/01 09:23:16;;;;;;;8.33;4.10;;;6.50;99.90;;;;;;4971864;28;20456;-88
2022/02/01 09:26:39;;;;;;;5.90;3.70;;;6.00;99.90;;;;;;4970220;28;20440;-89
2022/02/01 09:29:28;;;;;;;6.27;4.67;;;6.80;99.90;;;;;;4985141;28;20475;-84
2022/02/01 09:32:14;;;;;;;9.40;4.50;;;6.90;99.90;;;;;;4990045;28;20525;-85
2022/02/01 09:35:36;;;;;;;3.93;3.50;;;6.80;99.90;;;;;;4994374;28;20489;-85
2022/02/01 09:39:14;;;;;;;4.83;3.17;;;6.90;99.90;;;;;;4975940;28;20494;-85
2022/02/01 09:42:47;;;;;;;5.20;3.63;;;6.70;99.90;;;;;;4991716;23;20533;-83
2022/02/01 09:45:33;;;;;;;4.63;3.80;;;7.10;99.90;;;;;;4997697;28;20467;-84
2022/02/01 09:48:33;;;;;;;3.87;2.80;;;7.40;99.90;;;;;;4964531;28;20456;-85
2022/02/01 09:51:26;;;;;;;6.13;2.50;;;6.70;99.90;;;;;;4954092;28;22107;-83
2022/02/01 09:54:41;;;;;;;;;;;;;;;;;;;;;
2022/02/01 09:58:12;;;;;;;3.43;2.23;;;6.70;99.90;;;;;;4979935;28;20487;-84
2022/02/01 10:01:12;;;;;;;2.83;2.10;;;6.60;99.90;;;;;;4981423;28;20480;-79
2022/02/01 10:04:19;;;;;;;4.13;3.03;;;6.70;99.90;;;;;;4972436;28;20463;-81
2022/02/01 10:10:47;;;;;;;2.77;2.10;;;6.90;99.90;;;;;;4966465;28;20511;-82
2022/02/01 10:14:22;;;;;;;2.10;1.90;;;6.80;99.90;;;;;;4966089;28;20457;-83
2022/02/01 10:18:02;;;;;;;2.00;1.50;;;7.10;99.90;;;;;;4964580;28;20457;-84
2022/02/01 10:21:27;;;;;;;1.60;1.50;;;7.40;99.90;;;;;;4894393;29;20510;-84
2022/02/01 10:25:06;;;;;;;1.90;1.70;;;7.20;99.90;;;;;;4892061;29;20477;-83
2022/02/01 10:28:16;;;;;;;;;;;;;;;;;;;;;
2022/02/01 10:31:59;;;;;;;1.60;1.37;;;7.40;99.90;;;;;;4928245;29;20506;-84
2022/02/01 10:34:58;;;;;;;1.57;1.30;;;7.70;99.90;;;;;;4873041;29;20460;-83
2022/02/01 10:38:40;;;;;;;2.70;1.63;;;7.50;99.90;;;;;;4874099;29;20467;-85
2022/02/01 10:42:21;;;;;;;2.83;1.37;;;7.40;99.90;;;;;;4854048;29;22442;-83
2022/02/01 10:45:33;;;;;;;2.13;1.30;;;7.50;99.90;;;;;;4839399;29;20587;-85
2022/02/01 10:48:37;;;;;;;1.57;1.10;;;7.30;99.90;;;;;;4912484;29;20481;-84
2022/02/01 10:51:49;;;;;;;1.97;1.20;;;7.60;99.90;;;;;;4928711;29;20573;-83
2022/02/01 10:54:55;;;;;;;2.70;1.00;;;7.40;99.90;;;;;;4911894;29;20457;-84
2022/02/01 10:58:11;;;;;;;2.10;0.97;;;7.60;99.90;;;;;;4955383;28;20508;-85
2022/02/01 11:05:03;;;;;;;2.20;0.97;;;7.50;99.90;;;;;;4952851;28;20451;-82
2022/02/01 11:11:23;;;;;;;1.17;1.00;;;7.50;99.90;;;;;;4982882;28;20497;-84
2022/02/01 11:14:43;;;;;;;2.23;1.77;;;7.70;99.90;;;;;;4976021;28;20498;-84
2022/02/01 11:17:53;;;;;;;1.50;1.13;;;7.70;99.90;;;;;;4961131;28;20496;-86
2022/02/01 11:20:50;;;;;;;;;;;;;;;;;;;;;
2022/02/01 11:24:10;;;;;;;3.00;2.20;;;7.60;99.90;;;;;;5006199;28;20491;-84
2022/02/01 11:27:29;;;;;;;1.63;1.33;;;7.60;99.90;;;;;;4986715;28;20444;-82
2022/02/01 11:30:23;;;;;;;2.10;1.70;;;7.60;99.90;;;;;;4990667;28;20483;-81
2022/02/01 11:33:39;;;;;;;1.93;1.50;;;7.60;99.90;;;;;;4995141;28;20481;-84
2022/02/01 11:49:55;;;;;;;2.20;2.00;;;7.60;99.90;;;;;;4887757;29;20459;-81
2022/02/01 11:59:07;;;;;;;2.03;1.83;;;7.60;99.90;;;;;;4993448;28;20478;-82
2022/02/01 12:01:39;;;;;;;2.70;2.30;;;7.60;99.90;;;;;;4995195;28;20455;-83
2022/02/01 12:04:17;;;;;;;1.93;1.73;;;7.60;99.90;;;;;;4994732;28;20447;-81
2022/02/01 12:06:55;;;;;;;7.80;2.60;;;7.60;99.90;;;;;;4997924;28;20462;-83
2022/02/01 12:09:24;;;;;;;2.57;2.27;;;7.60;99.90;;;;;;5008238;28;20826;-82
2022/02/01 12:11:59;;;;;;;3.90;2.10;;;7.50;99.90;;;;;;5000456;28;20459;-81
2022/02/01 12:14:28;;;;;;;3.27;2.57;;;7.50;99.90;;;;;;5001482;28;20499;-82
2022/02/01 12:16:58;;;;;;;5.93;2.60;;;7.50;99.90;;;;;;5010502;28;20505;-82
2022/02/01 12:19:38;;;;;;;3.30;2.23;;;7.50;99.90;;;;;;4995290;28;20454;-84
2022/02/01 12:22:44;;;;;;;3.83;3.10;;;7.50;99.90;;;;;;4998287;28;22041;-83
2022/02/01 12:25:11;;;;;;;2.87;2.67;;;7.50;99.90;;;;;;5009438;28;20471;-83
2022/02/01 12:27:41;;;;;;;4.27;3.23;;;7.70;99.90;;;;;;5000780;28;20482;-81
2022/02/01 12:30:10;;;;;;;2.80;2.40;;;7.60;99.90;;;;;;4999028;28;20455;-81
2022/02/01 12:32:49;;;;;;;4.33;2.40;;;7.60;99.90;;;;;;4997182;28;20460;-83
2022/02/01 12:35:16;;;;;;;2.00;1.90;;;7.60;99.90;;;;;;4998709;28;20486;-83
2022/02/01 12:37:43;;;;;;;2.43;2.20;;;7.60;99.90;;;;;;4996190;28;20451;-81
2022/02/01 12:40:12;;;;;;;3.43;2.50;;;7.70;99.90;;;;;;4996398;28;20455;-83
2022/02/01 12:42:53;;;;;;;2.40;2.17;;;7.70;99.90;;;;;;5004491;28;20448;-78
2022/02/01 12:48:06;;;;;;;2.40;2.00;;;7.70;99.90;;;;;;4999285;28;20451;-81
2022/02/01 12:50:33;;;;;;;2.90;1.77;;;7.80;99.90;;;;;;5001221;28;20459;-82
2022/02/01 12:53:03;;;;;;;2.50;1.67;;;7.80;99.90;;;;;;5020307;28;20467;-79
2022/02/01 12:55:31;;;;;;;4.20;1.70;;;7.70;99.90;;;;;;5015643;28;20514;-81
2022/02/01 12:58:14;;;;;;;2.33;2.03;;;7.80;99.90;;;;;;4996156;28;20460;-80
2022/02/01 13:00:47;;;;;;;2.40;1.80;;;7.70;99.90;;;;;;4997302;28;20452;-82
2022/02/01 13:03:14;;;;;;;1.10;0.93;;;7.70;99.90;;;;;;5013917;28;20454;-82
2022/02/01 13:06:01;;;;;;;2.73;1.60;;;7.70;99.90;;;;;;5002998;28;20502;-83
2022/02/01 13:15:27;;;;;;;1.77;1.30;;;7.60;99.90;;;;;;5011261;28;20564;-81
2022/02/01 13:21:43;;;;;;;1.00;1.00;;;7.80;99.90;;;;;;5000907;28;20455;-80
2022/02/01 13:24:41;;;;;;;0.80;0.80;;;8.00;99.90;;;;;;5030649;28;20445;-80
2022/02/01 13:27:49;;;;;;;3.47;1.10;;;7.90;99.90;;;;;;5004962;28;20475;-82
2022/02/01 13:31:28;;;;;;;0.93;0.80;;;8.00;99.90;;;;;;5011581;28;20482;-79
2022/02/01 13:34:15;;;;;;;1.30;0.83;;;8.00;99.90;;;;;;5021622;28;20451;-81
2022/02/01 13:37:05;;;;;;;2.10;1.00;;;8.00;99.90;;;;;;5012990;28;21075;-83
2022/02/01 13:40:38;;;;;;;2.20;0.90;;;8.00;99.90;;;;;;5001570;28;20451;-83
2022/02/01 13:43:26;;;;;;;1.67;1.00;;;8.10;99.90;;;;;;5014829;28;20447;-82
2022/02/01 13:46:29;;;;;;;1.33;1.10;;;8.20;99.90;;;;;;5020603;28;20487;-82
2022/02/01 13:49:26;;;;;;;1.30;0.90;;;8.20;99.90;;;;;;5010181;28;20514;-83
2022/02/01 13:52:38;;;;;;;1.80;0.93;;;8.20;99.90;;;;;;5014102;28;20459;-81
2022/02/01 13:55:28;;;;;;;1.30;1.20;;;8.30;99.90;;;;;;5001406;28;20470;-83
2022/02/01 13:58:55;;;;;;;1.00;0.87;;;8.30;99.90;;;;;;5013114;28;20895;-81
2022/02/01 14:01:45;;;;;;;1.83;1.10;;;8.50;99.90;;;;;;5009151;28;20470;-81
2022/02/01 14:09:10;;;;;;;0.87;0.87;;;8.30;99.90;;;;;;4921531;29;20508;-81
2022/02/01 14:12:44;;;;;;;0.90;0.90;;;8.30;99.90;;;;;;4918930;29;20538;-81
2022/02/01 14:25:40;;;;;;;1.03;1.00;;;8.40;99.90;;;;;;4980635;28;20481;-82
2022/02/01 14:34:35;;;;;;;2.67;1.33;;;9.00;99.90;;;;;;4947036;29;20457;-80
2022/02/01 14:37:25;;;;;;;1.17;1.07;;;8.30;99.90;;;;;;4932078;29;20925;-81
2022/02/01 14:47:00;;;;;;;1.30;1.20;;;8.60;99.90;;;;;;4924604;29;20469;-81
2022/02/01 14:50:03;;;;;;;2.80;1.60;;;8.50;99.90;;;;;;4938020;29;20533;-81
2022/02/01 14:52:48;;;;;;;1.60;1.50;;;8.40;99.90;;;;;;4928643;29;20510;-82
2022/02/01 14:56:09;;;;;;;1.93;1.70;;;8.30;99.90;;;;;;4927102;29;20473;-81
2022/02/01 15:11:25;;;;;;;3.53;2.37;;;8.50;99.90;;;;;;5003026;28;20486;-80
2022/02/01 15:14:31;;;;;;;2.20;2.00;;;8.50;99.90;;;;;;5004795;28;20462;-80
2022/02/01 15:17:14;;;;;;;2.60;2.40;;;8.70;99.90;;;;;;4988301;28;20507;-81
2022/02/01 15:20:05;;;;;;;7.13;3.40;;;9.00;99.90;;;;;;5000020;28;20538;-81
2022/02/01 15:22:51;;;;;;;3.90;3.60;;;8.60;99.90;;;;;;5009409;28;20455;-83
2022/02/01 15:25:46;;;;;;;4.30;3.77;;;9.10;99.90;;;;;;5015135;28;20467;-81
2022/02/01 15:28:47;;;;;;;4.43;4.03;;;8.60;99.90;;;;;;4995436;28;20804;-82
2022/02/01 15:31:51;;;;;;;4.60;3.77;;;8.60;99.90;;;;;;4995433;28;20463;-81
2022/02/01 15:34:51;;;;;;;5.70;5.20;;;8.70;99.90;;;;;;4999806;28;20479;-81
2022/02/01 15:37:59;;;;;;;6.73;6.17;;;8.70;99.90;;;;;;5009179;28;20513;-81
2022/02/01 16:06:21;;;;;;;9.70;8.30;;;9.00;99.90;;;;;;5000169;28;20472;-83
2022/02/01 16:09:17;;;;;;;8.77;7.80;;;9.10;99.90;;;;;;4999194;28;20448;-81
2022/02/01 16:15:17;;;;;;;13.50;10.50;;;9.10;99.90;;;;;;4989535;28;20487;-80
2022/02/01 16:18:03;;;;;;;15.10;9.17;;;9.20;99.90;;;;;;5002304;28;20474;-82
2022/02/01 16:20:58;;;;;;;10.70;6.97;;;9.20;99.90;;;;;;5003356;28;20526;-81
2022/02/01 16:27:27;;;;;;;10.20;8.30;;;9.30;99.90;;;;;;4991221;28;20465;-82
2022/02/01 16:30:39;;;;;;;8.70;7.73;;;9.30;99.90;;;;;;4988909;28;20463;-82
2022/02/01 16:33:43;;;;;;;10.87;8.20;;;9.30;99.90;;;;;;4962824;28;20474;-81
2022/02/01 16:36:43;;;;;;;14.33;8.23;;;9.30;99.90;;;;;;4986264;28;20493;-81
2022/02/01 16:39:26;;;;;;;9.10;8.20;;;9.40;99.90;;;;;;4995884;28;20466;-81
2022/02/01 16:42:14;;;;;;;9.47;7.90;;;9.40;99.90;;;;;;4994686;28;20459;-81
2022/02/01 16:49:35;;;;;;;9.57;7.47;;;9.30;99.90;;;;;;4984248;28;20459;-83
2022/02/01 16:52:02;;;;;;;11.57;7.87;;;9.40;99.90;;;;;;4951123;28;20461;-82
2022/02/01 16:55:12;;;;;;;10.00;6.90;;;9.40;99.90;;;;;;4963074;28;20472;-82
2022/02/01 16:58:21;;;;;;;;;;;;;;;;;;;;;
2022/02/01 17:01:08;;;;;;;12.63;8.30;;;9.40;99.90;;;;;;4923309;29;20500;-83
2022/02/01 17:10:47;;;;;;;9.03;7.73;;;9.50;99.90;;;;;;4964829;29;20455;-80
2022/02/01 17:18:15;;;;;;;7.63;6.50;;;9.40;99.90;;;;;;4965748;28;20531;-80
2022/02/01 17:24:20;;;;;;;12.30;8.40;;;9.60;99.90;;;;;;4994426;28;20530;-80
2022/02/01 17:27:08;;;;;;;8.33;7.07;;;9.70;99.90;;;;;;4996495;28;20471;-81
2022/02/01 17:29:51;;;;;;;9.27;7.07;;;9.70;99.90;;;;;;4992507;28;20544;-81
2022/02/01 17:33:05;;;;;;;11.00;7.50;;;9.70;99.90;;;;;;4980049;28;20458;-80
2022/02/01 17:35:54;;;;;;;;;;;;;;;;;;;;;
2022/02/01 17:39:05;;;;;;;14.80;9.13;;;9.70;99.90;;;;;;4986298;28;20469;-80
2022/02/01 17:45:19;;;;;;;9.13;6.50;;;9.70;99.90;;;;;;4892462;29;20534;-80
2022/02/01 17:48:32;;;;;;;10.67;6.70;;;9.70;99.90;;;;;;4887357;29;20460;-80
2022/02/01 17:51:15;;;;;;;15.23;7.40;;;9.70;99.90;;;;;;4915816;29;20763;-82
2022/02/01 17:57:34;;;;;;;8.40;6.77;;;9.70;99.90;;;;;;4932309;29;20493;-82
2022/02/01 18:00:12;;;;;;;8.40;5.00;;;9.60;99.90;;;;;;4930439;29;20463;-80
2022/02/01 18:02:51;;;;;;;10.50;5.33;;;9.70;99.90;;;;;;4930639;29;20466;-81
2022/02/01 18:05:37;;;;;;;8.83;5.17;;;9.70;99.90;;;;;;4903765;29;20580;-81
2022/02/01 18:16:17;;;;;;;8.63;5.73;;;9.80;99.90;;;;;;4849575;29;20509;-81
2022/02/01 18:19:18;;;;;;;9.97;4.30;;;9.80;99.90;;;;;;4762551;29;20447;-82
2022/02/01 18:22:26;;;;;;;9.50;3.67;;;9.80;99.90;;;;;;4850003;28;20686;-82
2022/02/01 18:26:29;;;;;;;9.07;3.97;;;9.80;99.90;;;;;;4945253;28;20474;-80
2022/02/01 18:33:12;;;;;;;9.20;6.97;;;9.80;99.90;;;;;;4987162;28;20478;-77
2022/02/01 18:36:11;;;;;;;12.87;8.10;;;9.90;99.90;;;;;;4991557;28;20508;-81
2022/02/01 18:39:18;;;;;;;7.57;3.23;;;9.70;99.90;;;;;;4972763;28;20460;-81
2022/02/01 18:42:23;;;;;;;6.63;4.23;;;9.70;99.90;;;;;;4983544;28;20513;-81
2022/02/01 18:45:56;;;;;;;9.43;4.80;;;9.80;99.90;;;;;;4999715;28;20508;-83
2022/02/01 18:49:13;;;;;;;6.63;3.60;;;9.80;99.90;;;;;;4996174;28;22279;-82
2022/02/01 18:52:21;;;;;;;4.97;3.90;;;9.70;99.90;;;;;;4994559;28;20559;-82
2022/02/01 18:55:23;;;;;;;13.33;5.23;;;9.70;99.90;;;;;;4979030;28;20483;-81
2022/02/01 18:58:29;;;;;;;11.17;5.63;;;9.70;99.90;;;;;;4984108;28;20478;-82
2022/02/01 19:11:57;;;;;;;10.27;4.13;;;9.80;99.90;;;;;;4944748;28;20458;-82
2022/02/01 19:15:01;;;;;;;10.13;3.87;;;9.70;99.90;;;;;;4937839;28;20489;-82
2022/02/01 19:18:04;;;;;;;;;;;;;;;;;;;;;
2022/02/01 19:21:02;;;;;;;9.00;3.60;;;9.80;99.90;;;;;;4939998;28;22042;-81
2022/02/01 19:23:59;;;;;;;7.27;2.90;;;9.70;99.90;;;;;;4928626;28;20456;-80
2022/02/01 19:27:28;;;;;;;9.27;3.10;;;9.70;99.90;;;;;;4934755;28;20460;-80
2022/02/01 19:30:26;;;;;;;5.70;2.73;;;9.80;99.90;;;;;;4899040;28;20471;-79
2022/02/01 19:33:27;;;;;;;6.93;3.60;;;9.80;99.90;;;;;;4932872;28;20493;-81
2022/02/01 19:36:58;;;;;;;7.73;3.67;;;9.70;99.90;;;;;;4920094;28;20465;-81
2022/02/01 19:40:28;;;;;;;8.37;2.90;;;9.70;99.90;;;;;;4931581;28;20622;-80
2022/02/01 19:46:50;;;;;;;11.53;3.43;;;9.80;99.90;;;;;;4931605;28;20482;-81
2022/02/01 19:50:12;;;;;;;7.83;4.10;;;9.80;99.90;;;;;;4988944;28;20471;-82
2022/02/01 19:52:39;;;;;;;10.33;4.30;;;9.50;99.90;;;;;;4952141;28;20456;-80
2022/02/01 19:55:08;;;;;;;9.10;4.57;;;9.80;99.90;;;;;;4955237;28;20488;-81
2022/02/01 19:57:36;;;;;;;10.53;3.80;;;9.80;99.90;;;;;;4975803;28;20483;-81
2022/02/01 20:00:16;;;;;;;6.63;3.30;;;9.80;99.90;;;;;;4987640;28;21821;-81
2022/02/01 20:02:46;;;;;;;11.33;3.80;;;9.80;99.90;;;;;;5005767;28;20451;-81
2022/02/01 20:05:15;;;;;;;13.87;4.00;;;9.80;99.90;;;;;;4984761;28;20480;-82
2022/02/01 20:07:46;;;;;;;12.50;3.30;;;9.80;99.90;;;;;;4986775;28;20485;-81
2022/02/01 20:10:15;;;;;;;12.30;3.90;;;9.80;99.90;;;;;;4987041;28;20625;-79
2022/02/01 20:12:44;;;;;;;9.17;3.23;;;9.80;99.90;;;;;;4987670;28;20470;-80
2022/02/01 20:15:19;;;;;;;8.47;4.53;;;9.80;99.90;;;;;;4984076;28;20479;-83
2022/02/01 20:17:52;;;;;;;6.77;2.93;;;9.80;99.90;;;;;;4982766;28;20490;-80
2022/02/01 20:20:22;;;;;;;9.17;2.80;;;9.80;99.90;;;;;;4979410;28;20484;-81
2022/02/01 20:22:53;;;;;;;5.97;2.93;;;9.80;99.90;;;;;;4987600;28;20451;-82